Terminal Aerodrome Forecast
Issued by NWS

Home | Current Version | Previous Version | Graphics & Text | Print | Product List | Glossary On
Versions: 1 2 3 4 5 6 7 8 9 10 11 12 13 14 15 16 17 18 19 20 21 22 23 24 25
807
FTUS43 KLSX 302327
TAFCPS
TAF
KCPS 302327Z 0100/0124 16015G23KT P6SM VCSH BKN060
     FM010500 19010G16KT P6SM SCT130
     FM011300 22013G23KT P6SM BKN040
     FM011400 22014G25KT P6SM OVC030=

USA.gov is the U.S. government's official web portal to all federal, state and local government web resources and services.